sensor_id;sensor_type;location;lat;lon;timestamp;P1;durP1;ratioP1;P2;durP2;ratioP2
21567;SDS011;10944;42.590;12.630;2022-08-19T00:00:28;33.97;;;9.60;;
21567;SDS011;10944;42.590;12.630;2022-08-19T00:02:54;26.83;;;10.18;;
21567;SDS011;10944;42.590;12.630;2022-08-19T00:05:20;42.17;;;13.55;;
21567;SDS011;10944;42.590;12.630;2022-08-19T00:07:47;32.67;;;11.05;;
21567;SDS011;10944;42.590;12.630;2022-08-19T00:10:14;33.75;;;10.82;;
21567;SDS011;10944;42.590;12.630;2022-08-19T00:12:42;30.33;;;10.07;;
21567;SDS011;10944;42.590;12.630;2022-08-19T00:15:10;32.90;;;9.43;;
21567;SDS011;10944;42.590;12.630;2022-08-19T00:17:41;26.52;;;8.50;;
21567;SDS011;10944;42.590;12.630;2022-08-19T00:20:09;29.73;;;9.13;;
21567;SDS011;10944;42.590;12.630;2022-08-19T00:22:38;33.40;;;9.43;;
21567;SDS011;10944;42.590;12.630;2022-08-19T00:25:06;25.95;;;9.23;;
21567;SDS011;10944;42.590;12.630;2022-08-19T00:27:33;24.58;;;8.70;;
21567;SDS011;10944;42.590;12.630;2022-08-19T00:29:59;29.05;;;8.85;;
21567;SDS011;10944;42.590;12.630;2022-08-19T00:32:27;23.02;;;8.35;;
21567;SDS011;10944;42.590;12.630;2022-08-19T00:34:52;23.88;;;8.05;;
21567;SDS011;10944;42.590;12.630;2022-08-19T00:37:19;27.40;;;9.38;;
21567;SDS011;10944;42.590;12.630;2022-08-19T00:39:50;25.90;;;8.18;;
21567;SDS011;10944;42.590;12.630;2022-08-19T00:42:17;30.33;;;10.07;;
21567;SDS011;10944;42.590;12.630;2022-08-19T00:44:46;19.77;;;6.72;;
21567;SDS011;10944;42.590;12.630;2022-08-19T00:47:15;26.13;;;7.50;;
21567;SDS011;10944;42.590;12.630;2022-08-19T00:49:43;21.80;;;7.95;;
21567;SDS011;10944;42.590;12.630;2022-08-19T00:52:16;26.33;;;8.40;;
21567;SDS011;10944;42.590;12.630;2022-08-19T00:54:49;19.25;;;7.78;;
21567;SDS011;10944;42.590;12.630;2022-08-19T00:57:18;23.10;;;8.25;;
21567;SDS011;10944;42.590;12.630;2022-08-19T00:59:47;22.45;;;7.68;;
21567;SDS011;10944;42.590;12.630;2022-08-19T01:02:18;17.25;;;7.15;;
21567;SDS011;10944;42.590;12.630;2022-08-19T01:04:44;22.90;;;6.97;;
21567;SDS011;10944;42.590;12.630;2022-08-19T01:07:10;24.15;;;6.68;;
21567;SDS011;10944;42.590;12.630;2022-08-19T01:09:35;20.15;;;6.70;;
21567;SDS011;10944;42.590;12.630;2022-08-19T01:12:01;24.58;;;7.30;;
21567;SDS011;10944;42.590;12.630;2022-08-19T01:14:28;22.30;;;7.43;;
21567;SDS011;10944;42.590;12.630;2022-08-19T01:16:55;21.98;;;7.20;;
21567;SDS011;10944;42.590;12.630;2022-08-19T01:19:27;26.90;;;7.63;;
21567;SDS011;10944;42.590;12.630;2022-08-19T01:21:57;20.00;;;6.25;;
21567;SDS011;10944;42.590;12.630;2022-08-19T01:24:31;24.17;;;8.32;;
21567;SDS011;10944;42.590;12.630;2022-08-19T01:26:57;18.40;;;6.50;;
21567;SDS011;10944;42.590;12.630;2022-08-19T01:29:23;21.00;;;6.55;;
21567;SDS011;10944;42.590;12.630;2022-08-19T01:31:49;25.42;;;6.68;;
21567;SDS011;10944;42.590;12.630;2022-08-19T01:34:17;22.88;;;6.47;;
21567;SDS011;10944;42.590;12.630;2022-08-19T01:36:44;23.00;;;6.47;;
21567;SDS011;10944;42.590;12.630;2022-08-19T01:39:13;20.58;;;7.07;;
21567;SDS011;10944;42.590;12.630;2022-08-19T01:41:41;23.67;;;6.72;;
21567;SDS011;10944;42.590;12.630;2022-08-19T01:44:08;20.98;;;6.30;;
21567;SDS011;10944;42.590;12.630;2022-08-19T01:46:35;24.55;;;6.82;;
21567;SDS011;10944;42.590;12.630;2022-08-19T01:49:01;20.88;;;6.43;;
21567;SDS011;10944;42.590;12.630;2022-08-19T01:51:28;24.25;;;5.80;;
21567;SDS011;10944;42.590;12.630;2022-08-19T01:53:55;20.10;;;6.78;;
21567;SDS011;10944;42.590;12.630;2022-08-19T01:56:22;23.20;;;6.20;;
21567;SDS011;10944;42.590;12.630;2022-08-19T01:58:50;19.98;;;6.00;;
21567;SDS011;10944;42.590;12.630;2022-08-19T02:01:19;27.02;;;6.80;;
21567;SDS011;10944;42.590;12.630;2022-08-19T02:03:45;22.58;;;6.22;;
21567;SDS011;10944;42.590;12.630;2022-08-19T02:06:11;21.60;;;6.72;;
21567;SDS011;10944;42.590;12.630;2022-08-19T02:08:37;20.90;;;6.43;;
21567;SDS011;10944;42.590;12.630;2022-08-19T02:11:05;25.35;;;7.13;;
21567;SDS011;10944;42.590;12.630;2022-08-19T02:13:32;28.35;;;7.03;;
21567;SDS011;10944;42.590;12.630;2022-08-19T02:15:59;28.08;;;7.53;;
21567;SDS011;10944;42.590;12.630;2022-08-19T02:18:24;34.53;;;7.82;;
21567;SDS011;10944;42.590;12.630;2022-08-19T02:20:51;30.55;;;7.75;;
21567;SDS011;10944;42.590;12.630;2022-08-19T02:23:17;27.23;;;7.95;;
21567;SDS011;10944;42.590;12.630;2022-08-19T02:25:44;29.73;;;7.35;;
21567;SDS011;10944;42.590;12.630;2022-08-19T02:28:12;23.25;;;8.05;;
21567;SDS011;10944;42.590;12.630;2022-08-19T02:30:38;34.30;;;8.20;;
21567;SDS011;10944;42.590;12.630;2022-08-19T02:33:05;32.28;;;7.47;;
21567;SDS011;10944;42.590;12.630;2022-08-19T02:35:30;30.55;;;7.68;;
21567;SDS011;10944;42.590;12.630;2022-08-19T02:37:56;25.30;;;7.10;;
21567;SDS011;10944;42.590;12.630;2022-08-19T02:40:40;28.23;;;7.75;;
21567;SDS011;10944;42.590;12.630;2022-08-19T02:43:14;29.77;;;7.32;;
21567;SDS011;10944;42.590;12.630;2022-08-19T02:45:40;29.25;;;7.75;;
21567;SDS011;10944;42.590;12.630;2022-08-19T02:48:06;27.48;;;6.88;;
21567;SDS011;10944;42.590;12.630;2022-08-19T02:50:33;27.38;;;7.72;;
21567;SDS011;10944;42.590;12.630;2022-08-19T02:53:05;34.30;;;6.82;;
21567;SDS011;10944;42.590;12.630;2022-08-19T02:55:32;29.05;;;7.38;;
21567;SDS011;10944;42.590;12.630;2022-08-19T02:57:58;25.95;;;6.55;;
21567;SDS011;10944;42.590;12.630;2022-08-19T03:00:24;24.33;;;6.25;;
21567;SDS011;10944;42.590;12.630;2022-08-19T03:02:51;26.15;;;6.40;;
21567;SDS011;10944;42.590;12.630;2022-08-19T03:05:17;26.02;;;5.68;;
21567;SDS011;10944;42.590;12.630;2022-08-19T03:07:43;26.88;;;6.28;;
21567;SDS011;10944;42.590;12.630;2022-08-19T03:10:09;21.73;;;6.10;;
21567;SDS011;10944;42.590;12.630;2022-08-19T03:12:35;26.48;;;6.00;;
21567;SDS011;10944;42.590;12.630;2022-08-19T03:15:03;21.05;;;5.82;;
21567;SDS011;10944;42.590;12.630;2022-08-19T03:17:33;22.00;;;5.82;;
21567;SDS011;10944;42.590;12.630;2022-08-19T03:19:59;23.73;;;5.60;;
21567;SDS011;10944;42.590;12.630;2022-08-19T03:22:26;19.90;;;5.25;;
21567;SDS011;10944;42.590;12.630;2022-08-19T03:24:51;21.55;;;5.78;;
21567;SDS011;10944;42.590;12.630;2022-08-19T03:27:18;19.58;;;5.55;;
21567;SDS011;10944;42.590;12.630;2022-08-19T03:29:44;20.77;;;5.50;;
21567;SDS011;10944;42.590;12.630;2022-08-19T03:32:10;23.92;;;5.45;;
21567;SDS011;10944;42.590;12.630;2022-08-19T03:34:37;22.60;;;5.85;;
21567;SDS011;10944;42.590;12.630;2022-08-19T03:37:07;21.27;;;4.78;;
21567;SDS011;10944;42.590;12.630;2022-08-19T03:39:35;19.80;;;5.60;;
21567;SDS011;10944;42.590;12.630;2022-08-19T03:42:02;19.92;;;5.65;;
21567;SDS011;10944;42.590;12.630;2022-08-19T03:44:29;19.05;;;5.32;;
21567;SDS011;10944;42.590;12.630;2022-08-19T03:46:57;15.40;;;4.88;;
21567;SDS011;10944;42.590;12.630;2022-08-19T03:49:25;16.17;;;5.38;;
21567;SDS011;10944;42.590;12.630;2022-08-19T03:51:53;21.17;;;5.43;;
21567;SDS011;10944;42.590;12.630;2022-08-19T03:54:20;15.77;;;4.65;;
21567;SDS011;10944;42.590;12.630;2022-08-19T03:56:51;18.90;;;4.85;;
21567;SDS011;10944;42.590;12.630;2022-08-19T03:59:23;21.42;;;5.15;;
21567;SDS011;10944;42.590;12.630;2022-08-19T04:01:54;18.42;;;4.78;;
21567;SDS011;10944;42.590;12.630;2022-08-19T04:04:21;17.35;;;5.10;;
21567;SDS011;10944;42.590;12.630;2022-08-19T04:06:48;17.58;;;5.00;;
21567;SDS011;10944;42.590;12.630;2022-08-19T04:09:15;16.40;;;4.90;;
21567;SDS011;10944;42.590;12.630;2022-08-19T04:11:42;17.60;;;4.60;;
21567;SDS011;10944;42.590;12.630;2022-08-19T04:14:12;16.65;;;5.00;;
21567;SDS011;10944;42.590;12.630;2022-08-19T04:16:40;16.17;;;4.35;;
21567;SDS011;10944;42.590;12.630;2022-08-19T04:19:06;17.98;;;4.75;;
21567;SDS011;10944;42.590;12.630;2022-08-19T04:21:32;18.98;;;4.57;;
21567;SDS011;10944;42.590;12.630;2022-08-19T04:23:58;14.20;;;4.72;;
21567;SDS011;10944;42.590;12.630;2022-08-19T04:26:25;18.48;;;5.03;;
21567;SDS011;10944;42.590;12.630;2022-08-19T04:28:53;19.30;;;4.97;;
21567;SDS011;10944;42.590;12.630;2022-08-19T04:31:20;15.32;;;5.00;;
21567;SDS011;10944;42.590;12.630;2022-08-19T04:33:51;16.75;;;4.97;;
21567;SDS011;10944;42.590;12.630;2022-08-19T04:36:23;19.50;;;4.30;;
21567;SDS011;10944;42.590;12.630;2022-08-19T04:38:52;19.50;;;5.13;;
21567;SDS011;10944;42.590;12.630;2022-08-19T04:41:19;13.88;;;4.15;;
21567;SDS011;10944;42.590;12.630;2022-08-19T04:44:04;20.27;;;5.05;;
21567;SDS011;10944;42.590;12.630;2022-08-19T04:46:30;15.30;;;3.90;;
21567;SDS011;10944;42.590;12.630;2022-08-19T04:48:57;19.33;;;4.07;;
21567;SDS011;10944;42.590;12.630;2022-08-19T04:51:26;21.55;;;4.35;;
21567;SDS011;10944;42.590;12.630;2022-08-19T04:53:52;17.02;;;3.90;;
21567;SDS011;10944;42.590;12.630;2022-08-19T04:56:18;16.80;;;3.75;;
21567;SDS011;10944;42.590;12.630;2022-08-19T04:58:51;16.38;;;4.05;;
21567;SDS011;10944;42.590;12.630;2022-08-19T05:01:21;17.98;;;4.35;;
21567;SDS011;10944;42.590;12.630;2022-08-19T05:03:53;18.60;;;3.65;;
21567;SDS011;10944;42.590;12.630;2022-08-19T05:06:19;11.88;;;4.32;;
21567;SDS011;10944;42.590;12.630;2022-08-19T05:08:46;16.23;;;4.13;;
21567;SDS011;10944;42.590;12.630;2022-08-19T05:13:41;21.00;;;4.55;;
21567;SDS011;10944;42.590;12.630;2022-08-19T05:16:11;19.73;;;4.05;;
21567;SDS011;10944;42.590;12.630;2022-08-19T05:18:38;14.48;;;3.83;;
21567;SDS011;10944;42.590;12.630;2022-08-19T05:21:23;16.63;;;3.83;;
21567;SDS011;10944;42.590;12.630;2022-08-19T05:24:08;14.68;;;3.85;;
21567;SDS011;10944;42.590;12.630;2022-08-19T05:26:35;17.50;;;4.55;;
21567;SDS011;10944;42.590;12.630;2022-08-19T05:29:02;14.85;;;3.50;;
21567;SDS011;10944;42.590;12.630;2022-08-19T05:31:28;12.80;;;3.75;;
21567;SDS011;10944;42.590;12.630;2022-08-19T05:33:54;14.55;;;3.63;;
21567;SDS011;10944;42.590;12.630;2022-08-19T05:36:23;16.40;;;3.70;;
21567;SDS011;10944;42.590;12.630;2022-08-19T05:38:50;14.40;;;4.10;;
21567;SDS011;10944;42.590;12.630;2022-08-19T05:41:18;20.05;;;3.67;;
21567;SDS011;10944;42.590;12.630;2022-08-19T05:43:44;20.05;;;3.75;;
21567;SDS011;10944;42.590;12.630;2022-08-19T05:46:15;15.23;;;3.80;;
21567;SDS011;10944;42.590;12.630;2022-08-19T05:48:43;17.23;;;3.67;;
21567;SDS011;10944;42.590;12.630;2022-08-19T05:51:09;16.90;;;3.85;;
21567;SDS011;10944;42.590;12.630;2022-08-19T05:53:36;13.00;;;3.47;;
21567;SDS011;10944;42.590;12.630;2022-08-19T05:56:09;13.57;;;3.22;;
21567;SDS011;10944;42.590;12.630;2022-08-19T05:58:41;13.98;;;3.42;;
21567;SDS011;10944;42.590;12.630;2022-08-19T06:01:11;15.43;;;3.65;;
21567;SDS011;10944;42.590;12.630;2022-08-19T06:33:10;13.27;;;3.90;;
21567;SDS011;10944;42.590;12.630;2022-08-19T06:35:39;14.32;;;3.60;;
21567;SDS011;10944;42.590;12.630;2022-08-19T06:38:05;12.63;;;3.00;;
21567;SDS011;10944;42.590;12.630;2022-08-19T06:40:31;13.43;;;3.00;;
21567;SDS011;10944;42.590;12.630;2022-08-19T06:42:57;13.48;;;3.60;;
21567;SDS011;10944;42.590;12.630;2022-08-19T06:45:24;12.80;;;3.63;;
21567;SDS011;10944;42.590;12.630;2022-08-19T06:47:51;13.55;;;3.65;;
21567;SDS011;10944;42.590;12.630;2022-08-19T06:50:21;11.50;;;3.17;;
21567;SDS011;10944;42.590;12.630;2022-08-19T06:52:50;12.57;;;3.53;;
21567;SDS011;10944;42.590;12.630;2022-08-19T06:55:16;11.77;;;3.42;;
21567;SDS011;10944;42.590;12.630;2022-08-19T06:57:42;8.20;;;3.63;;
21567;SDS011;10944;42.590;12.630;2022-08-19T07:00:11;12.18;;;3.60;;
21567;SDS011;10944;42.590;12.630;2022-08-19T07:02:41;10.60;;;3.45;;
21567;SDS011;10944;42.590;12.630;2022-08-19T07:05:07;15.93;;;3.90;;
21567;SDS011;10944;42.590;12.630;2022-08-19T07:07:33;12.45;;;3.95;;
21567;SDS011;10944;42.590;12.630;2022-08-19T07:09:59;10.07;;;3.75;;
21567;SDS011;10944;42.590;12.630;2022-08-19T07:12:26;11.85;;;3.60;;
21567;SDS011;10944;42.590;12.630;2022-08-19T07:14:56;14.25;;;4.38;;
21567;SDS011;10944;42.590;12.630;2022-08-19T07:17:22;12.27;;;3.70;;
21567;SDS011;10944;42.590;12.630;2022-08-19T07:19:48;15.30;;;3.92;;
21567;SDS011;10944;42.590;12.630;2022-08-19T07:22:15;15.48;;;3.58;;
21567;SDS011;10944;42.590;12.630;2022-08-19T07:24:42;13.65;;;3.63;;
21567;SDS011;10944;42.590;12.630;2022-08-19T07:27:07;8.35;;;3.13;;
21567;SDS011;10944;42.590;12.630;2022-08-19T07:29:35;10.60;;;3.13;;
21567;SDS011;10944;42.590;12.630;2022-08-19T07:32:01;13.65;;;3.83;;
21567;SDS011;10944;42.590;12.630;2022-08-19T07:34:29;12.48;;;3.28;;
21567;SDS011;10944;42.590;12.630;2022-08-19T07:36:57;10.20;;;3.53;;
21567;SDS011;10944;42.590;12.630;2022-08-19T07:39:24;9.43;;;3.63;;
21567;SDS011;10944;42.590;12.630;2022-08-19T07:41:52;8.05;;;3.13;;
21567;SDS011;10944;42.590;12.630;2022-08-19T07:44:19;9.80;;;3.50;;
21567;SDS011;10944;42.590;12.630;2022-08-19T07:46:47;9.43;;;3.20;;
21567;SDS011;10944;42.590;12.630;2022-08-19T07:49:16;9.68;;;3.42;;
21567;SDS011;10944;42.590;12.630;2022-08-19T07:51:45;10.25;;;3.15;;
21567;SDS011;10944;42.590;12.630;2022-08-19T07:54:12;9.25;;;3.60;;
21567;SDS011;10944;42.590;12.630;2022-08-19T07:56:38;11.65;;;3.42;;
21567;SDS011;10944;42.590;12.630;2022-08-19T07:59:04;9.13;;;3.55;;
21567;SDS011;10944;42.590;12.630;2022-08-19T08:01:30;8.00;;;3.35;;
21567;SDS011;10944;42.590;12.630;2022-08-19T08:03:57;10.48;;;3.22;;
21567;SDS011;10944;42.590;12.630;2022-08-19T08:06:42;14.70;;;3.72;;
21567;SDS011;10944;42.590;12.630;2022-08-19T08:09:28;10.23;;;3.50;;
21567;SDS011;10944;42.590;12.630;2022-08-19T08:12:06;11.43;;;3.75;;
21567;SDS011;10944;42.590;12.630;2022-08-19T08:14:39;9.10;;;3.00;;
21567;SDS011;10944;42.590;12.630;2022-08-19T08:17:09;9.73;;;3.22;;
21567;SDS011;10944;42.590;12.630;2022-08-19T08:19:35;11.07;;;3.55;;
21567;SDS011;10944;42.590;12.630;2022-08-19T08:22:02;7.80;;;3.00;;
21567;SDS011;10944;42.590;12.630;2022-08-19T08:24:30;8.05;;;3.30;;
21567;SDS011;10944;42.590;12.630;2022-08-19T08:26:57;10.63;;;3.30;;
21567;SDS011;10944;42.590;12.630;2022-08-19T08:29:27;7.82;;;3.13;;
21567;SDS011;10944;42.590;12.630;2022-08-19T08:31:55;9.10;;;3.15;;
21567;SDS011;10944;42.590;12.630;2022-08-19T08:34:21;8.30;;;3.10;;
21567;SDS011;10944;42.590;12.630;2022-08-19T08:36:47;8.88;;;3.28;;
21567;SDS011;10944;42.590;12.630;2022-08-19T08:39:14;8.80;;;3.30;;
21567;SDS011;10944;42.590;12.630;2022-08-19T08:41:52;6.88;;;3.00;;
21567;SDS011;10944;42.590;12.630;2022-08-19T08:47:13;8.20;;;2.90;;
21567;SDS011;10944;42.590;12.630;2022-08-19T08:49:45;11.38;;;3.35;;
21567;SDS011;10944;42.590;12.630;2022-08-19T08:52:18;10.18;;;3.13;;
21567;SDS011;10944;42.590;12.630;2022-08-19T08:54:53;9.65;;;3.00;;
21567;SDS011;10944;42.590;12.630;2022-08-19T08:57:27;7.97;;;3.17;;
21567;SDS011;10944;42.590;12.630;2022-08-19T08:59:57;9.13;;;3.03;;
21567;SDS011;10944;42.590;12.630;2022-08-19T09:02:28;9.18;;;2.83;;
21567;SDS011;10944;42.590;12.630;2022-08-19T09:04:54;7.60;;;2.90;;
21567;SDS011;10944;42.590;12.630;2022-08-19T09:10:25;12.35;;;3.20;;
21567;SDS011;10944;42.590;12.630;2022-08-19T09:15:30;8.18;;;3.13;;
21567;SDS011;10944;42.590;12.630;2022-08-19T09:18:02;9.63;;;2.80;;
21567;SDS011;10944;42.590;12.630;2022-08-19T09:20:29;7.22;;;2.53;;
21567;SDS011;10944;42.590;12.630;2022-08-19T09:22:56;8.30;;;2.75;;
21567;SDS011;10944;42.590;12.630;2022-08-19T09:25:23;12.45;;;3.40;;
21567;SDS011;10944;42.590;12.630;2022-08-19T09:27:49;10.25;;;2.90;;
21567;SDS011;10944;42.590;12.630;2022-08-19T09:30:23;9.68;;;2.90;;
21567;SDS011;10944;42.590;12.630;2022-08-19T09:32:51;8.98;;;3.35;;
21567;SDS011;10944;42.590;12.630;2022-08-19T09:35:18;9.60;;;3.22;;
21567;SDS011;10944;42.590;12.630;2022-08-19T09:37:48;8.45;;;3.20;;
21567;SDS011;10944;42.590;12.630;2022-08-19T09:40:14;11.38;;;3.38;;
21567;SDS011;10944;42.590;12.630;2022-08-19T09:42:41;11.25;;;3.10;;
21567;SDS011;10944;42.590;12.630;2022-08-19T09:45:08;10.07;;;3.40;;
21567;SDS011;10944;42.590;12.630;2022-08-19T09:47:35;9.60;;;3.35;;
21567;SDS011;10944;42.590;12.630;2022-08-19T09:50:04;8.88;;;2.90;;
21567;SDS011;10944;42.590;12.630;2022-08-19T09:52:34;7.55;;;3.17;;
21567;SDS011;10944;42.590;12.630;2022-08-19T09:55:01;9.48;;;3.67;;
21567;SDS011;10944;42.590;12.630;2022-08-19T09:57:31;8.05;;;3.30;;
21567;SDS011;10944;42.590;12.630;2022-08-19T09:59:58;10.80;;;3.33;;
21567;SDS011;10944;42.590;12.630;2022-08-19T10:02:24;10.13;;;2.88;;
21567;SDS011;10944;42.590;12.630;2022-08-19T10:04:50;9.07;;;3.25;;
21567;SDS011;10944;42.590;12.630;2022-08-19T10:07:34;11.35;;;3.70;;
21567;SDS011;10944;42.590;12.630;2022-08-19T10:10:00;11.63;;;3.70;;
21567;SDS011;10944;42.590;12.630;2022-08-19T10:12:26;9.88;;;3.60;;
21567;SDS011;10944;42.590;12.630;2022-08-19T10:14:52;8.43;;;2.97;;
21567;SDS011;10944;42.590;12.630;2022-08-19T10:17:19;9.07;;;2.97;;
21567;SDS011;10944;42.590;12.630;2022-08-19T10:19:45;12.43;;;3.25;;
21567;SDS011;10944;42.590;12.630;2022-08-19T10:22:11;8.20;;;3.03;;
21567;SDS011;10944;42.590;12.630;2022-08-19T10:24:38;9.75;;;3.00;;
21567;SDS011;10944;42.590;12.630;2022-08-19T10:27:04;8.00;;;2.85;;
21567;SDS011;10944;42.590;12.630;2022-08-19T10:29:30;7.20;;;3.05;;
21567;SDS011;10944;42.590;12.630;2022-08-19T10:32:00;9.85;;;3.05;;
21567;SDS011;10944;42.590;12.630;2022-08-19T10:34:26;11.27;;;2.88;;
21567;SDS011;10944;42.590;12.630;2022-08-19T10:36:53;8.82;;;3.20;;
21567;SDS011;10944;42.590;12.630;2022-08-19T10:39:19;6.40;;;2.70;;
21567;SDS011;10944;42.590;12.630;2022-08-19T10:41:45;8.02;;;2.70;;
21567;SDS011;10944;42.590;12.630;2022-08-19T10:44:12;8.75;;;2.78;;
21567;SDS011;10944;42.590;12.630;2022-08-19T10:46:40;9.15;;;2.70;;
21567;SDS011;10944;42.590;12.630;2022-08-19T10:49:10;9.63;;;3.08;;
21567;SDS011;10944;42.590;12.630;2022-08-19T10:51:37;8.00;;;2.90;;
21567;SDS011;10944;42.590;12.630;2022-08-19T10:54:22;6.68;;;2.60;;
21567;SDS011;10944;42.590;12.630;2022-08-19T10:56:47;10.48;;;3.08;;
21567;SDS011;10944;42.590;12.630;2022-08-19T10:59:20;9.68;;;2.97;;
21567;SDS011;10944;42.590;12.630;2022-08-19T11:01:48;7.32;;;2.65;;
21567;SDS011;10944;42.590;12.630;2022-08-19T11:04:16;10.20;;;3.20;;
21567;SDS011;10944;42.590;12.630;2022-08-19T11:06:45;9.23;;;2.83;;
21567;SDS011;10944;42.590;12.630;2022-08-19T11:09:13;9.32;;;3.17;;
21567;SDS011;10944;42.590;12.630;2022-08-19T11:11:41;6.97;;;2.80;;
21567;SDS011;10944;42.590;12.630;2022-08-19T11:14:08;8.00;;;2.88;;
21567;SDS011;10944;42.590;12.630;2022-08-19T11:16:39;8.73;;;2.83;;
21567;SDS011;10944;42.590;12.630;2022-08-19T11:19:06;6.60;;;2.70;;
21567;SDS011;10944;42.590;12.630;2022-08-19T11:21:39;7.28;;;2.80;;
21567;SDS011;10944;42.590;12.630;2022-08-19T11:24:08;7.68;;;2.33;;
21567;SDS011;10944;42.590;12.630;2022-08-19T11:26:36;9.05;;;2.90;;
21567;SDS011;10944;42.590;12.630;2022-08-19T11:29:03;6.57;;;2.70;;
21567;SDS011;10944;42.590;12.630;2022-08-19T11:31:32;5.95;;;2.80;;
21567;SDS011;10944;42.590;12.630;2022-08-19T11:34:01;6.35;;;2.88;;
21567;SDS011;10944;42.590;12.630;2022-08-19T11:36:29;7.93;;;3.20;;
21567;SDS011;10944;42.590;12.630;2022-08-19T11:38:56;6.63;;;2.83;;
21567;SDS011;10944;42.590;12.630;2022-08-19T11:41:22;6.18;;;2.80;;
21567;SDS011;10944;42.590;12.630;2022-08-19T11:43:49;9.60;;;2.75;;
21567;SDS011;10944;42.590;12.630;2022-08-19T11:46:19;6.95;;;2.75;;
21567;SDS011;10944;42.590;12.630;2022-08-19T11:48:46;7.00;;;2.92;;
21567;SDS011;10944;42.590;12.630;2022-08-19T11:51:15;7.45;;;2.78;;
21567;SDS011;10944;42.590;12.630;2022-08-19T11:53:43;8.10;;;2.90;;
21567;SDS011;10944;42.590;12.630;2022-08-19T11:56:10;5.63;;;2.78;;
21567;SDS011;10944;42.590;12.630;2022-08-19T11:58:39;5.80;;;2.60;;
21567;SDS011;10944;42.590;12.630;2022-08-19T12:01:08;7.93;;;2.92;;
21567;SDS011;10944;42.590;12.630;2022-08-19T12:03:36;8.73;;;3.08;;
21567;SDS011;10944;42.590;12.630;2022-08-19T12:06:06;8.45;;;2.92;;
21567;SDS011;10944;42.590;12.630;2022-08-19T12:08:38;6.32;;;2.88;;
21567;SDS011;10944;42.590;12.630;2022-08-19T12:11:08;6.70;;;2.90;;
21567;SDS011;10944;42.590;12.630;2022-08-19T12:13:35;7.32;;;3.00;;
21567;SDS011;10944;42.590;12.630;2022-08-19T12:16:07;7.40;;;2.88;;
21567;SDS011;10944;42.590;12.630;2022-08-19T12:18:38;7.80;;;3.30;;
21567;SDS011;10944;42.590;12.630;2022-08-19T12:21:10;7.78;;;3.08;;
21567;SDS011;10944;42.590;12.630;2022-08-19T12:23:38;7.40;;;3.13;;
21567;SDS011;10944;42.590;12.630;2022-08-19T12:26:05;9.80;;;3.53;;
21567;SDS011;10944;42.590;12.630;2022-08-19T12:28:30;7.40;;;2.92;;
21567;SDS011;10944;42.590;12.630;2022-08-19T12:30:57;10.40;;;3.35;;
21567;SDS011;10944;42.590;12.630;2022-08-19T12:33:23;7.32;;;3.00;;
21567;SDS011;10944;42.590;12.630;2022-08-19T12:35:49;10.25;;;3.10;;
21567;SDS011;10944;42.590;12.630;2022-08-19T12:38:16;10.57;;;3.80;;
21567;SDS011;10944;42.590;12.630;2022-08-19T12:40:44;6.95;;;3.05;;
21567;SDS011;10944;42.590;12.630;2022-08-19T12:43:12;5.63;;;2.63;;
21567;SDS011;10944;42.590;12.630;2022-08-19T12:45:39;7.97;;;3.00;;
21567;SDS011;10944;42.590;12.630;2022-08-19T12:48:04;7.18;;;2.60;;
21567;SDS011;10944;42.590;12.630;2022-08-19T12:50:30;8.50;;;3.05;;
21567;SDS011;10944;42.590;12.630;2022-08-19T12:52:56;5.93;;;2.67;;
21567;SDS011;10944;42.590;12.630;2022-08-19T12:55:23;7.05;;;3.30;;
21567;SDS011;10944;42.590;12.630;2022-08-19T12:57:50;6.28;;;2.60;;
21567;SDS011;10944;42.590;12.630;2022-08-19T13:00:17;4.57;;;2.70;;
21567;SDS011;10944;42.590;12.630;2022-08-19T13:02:46;7.20;;;3.10;;
21567;SDS011;10944;42.590;12.630;2022-08-19T13:05:17;7.07;;;3.05;;
21567;SDS011;10944;42.590;12.630;2022-08-19T13:07:47;10.20;;;3.20;;
21567;SDS011;10944;42.590;12.630;2022-08-19T13:10:14;5.85;;;3.10;;
21567;SDS011;10944;42.590;12.630;2022-08-19T13:12:43;11.93;;;3.47;;
21567;SDS011;10944;42.590;12.630;2022-08-19T13:15:12;7.55;;;3.10;;
21567;SDS011;10944;42.590;12.630;2022-08-19T13:17:40;6.43;;;3.00;;
21567;SDS011;10944;42.590;12.630;2022-08-19T13:20:09;6.97;;;2.90;;
21567;SDS011;10944;42.590;12.630;2022-08-19T13:22:36;7.10;;;3.00;;
21567;SDS011;10944;42.590;12.630;2022-08-19T13:25:06;10.57;;;3.45;;
21567;SDS011;10944;42.590;12.630;2022-08-19T13:27:33;5.57;;;2.80;;
21567;SDS011;10944;42.590;12.630;2022-08-19T13:29:59;6.25;;;2.80;;
21567;SDS011;10944;42.590;12.630;2022-08-19T13:32:44;24.00;;;4.82;;
21567;SDS011;10944;42.590;12.630;2022-08-19T13:35:28;21.50;;;5.68;;
21567;SDS011;10944;42.590;12.630;2022-08-19T13:37:53;13.70;;;3.55;;
21567;SDS011;10944;42.590;12.630;2022-08-19T13:40:20;5.45;;;2.58;;
21567;SDS011;10944;42.590;12.630;2022-08-19T13:42:49;7.15;;;2.63;;
21567;SDS011;10944;42.590;12.630;2022-08-19T13:45:17;6.80;;;3.08;;
21567;SDS011;10944;42.590;12.630;2022-08-19T13:47:46;7.85;;;2.83;;
21567;SDS011;10944;42.590;12.630;2022-08-19T13:50:14;11.00;;;3.95;;
21567;SDS011;10944;42.590;12.630;2022-08-19T13:52:42;10.55;;;3.35;;
21567;SDS011;10944;42.590;12.630;2022-08-19T13:55:08;11.85;;;4.22;;
21567;SDS011;10944;42.590;12.630;2022-08-19T13:57:36;20.17;;;4.30;;
21567;SDS011;10944;42.590;12.630;2022-08-19T14:00:08;12.80;;;4.05;;
21567;SDS011;10944;42.590;12.630;2022-08-19T14:15:15;8.27;;;3.35;;
21567;SDS011;10944;42.590;12.630;2022-08-19T14:17:42;10.70;;;3.97;;
21567;SDS011;10944;42.590;12.630;2022-08-19T14:20:11;7.78;;;2.95;;
21567;SDS011;10944;42.590;12.630;2022-08-19T14:22:39;10.23;;;3.17;;
21567;SDS011;10944;42.590;12.630;2022-08-19T14:25:06;7.70;;;3.50;;
21567;SDS011;10944;42.590;12.630;2022-08-19T14:27:36;8.40;;;4.50;;
21567;SDS011;10944;42.590;12.630;2022-08-19T14:30:04;8.07;;;4.18;;
21567;SDS011;10944;42.590;12.630;2022-08-19T14:32:31;8.50;;;3.95;;
21567;SDS011;10944;42.590;12.630;2022-08-19T14:34:57;6.68;;;3.40;;
21567;SDS011;10944;42.590;12.630;2022-08-19T14:37:23;8.55;;;4.13;;
21567;SDS011;10944;42.590;12.630;2022-08-19T14:39:50;8.48;;;3.88;;
21567;SDS011;10944;42.590;12.630;2022-08-19T14:42:16;9.35;;;4.38;;
21567;SDS011;10944;42.590;12.630;2022-08-19T14:44:42;7.57;;;4.10;;
21567;SDS011;10944;42.590;12.630;2022-08-19T14:47:08;8.80;;;4.20;;
21567;SDS011;10944;42.590;12.630;2022-08-19T14:49:34;8.40;;;4.53;;
21567;SDS011;10944;42.590;12.630;2022-08-19T14:52:00;9.50;;;4.70;;
21567;SDS011;10944;42.590;12.630;2022-08-19T14:54:28;8.55;;;4.60;;
21567;SDS011;10944;42.590;12.630;2022-08-19T14:56:54;7.38;;;4.35;;
21567;SDS011;10944;42.590;12.630;2022-08-19T14:59:20;7.32;;;3.95;;
21567;SDS011;10944;42.590;12.630;2022-08-19T15:01:45;7.97;;;4.38;;
21567;SDS011;10944;42.590;12.630;2022-08-19T15:04:11;11.77;;;4.82;;
21567;SDS011;10944;42.590;12.630;2022-08-19T15:06:37;8.43;;;4.72;;
21567;SDS011;10944;42.590;12.630;2022-08-19T15:09:03;6.93;;;4.20;;
21567;SDS011;10944;42.590;12.630;2022-08-19T15:11:29;10.50;;;3.80;;
21567;SDS011;10944;42.590;12.630;2022-08-19T15:13:57;7.95;;;4.20;;
21567;SDS011;10944;42.590;12.630;2022-08-19T15:16:25;7.13;;;3.65;;
21567;SDS011;10944;42.590;12.630;2022-08-19T15:18:52;6.47;;;4.07;;
21567;SDS011;10944;42.590;12.630;2022-08-19T15:21:24;6.43;;;3.95;;
21567;SDS011;10944;42.590;12.630;2022-08-19T15:23:50;8.02;;;3.70;;